Time;durP1;ratioP1;P1;durP2;ratioP2;P2;SDS_P1;SDS_P2;PMS_P1;PMS_P2;Temp;Humidity;BMP_temperature;BMP_pressure;BME280_temperature;BME280_humidity;BME280_pressure;Samples;Min_cycle;Max_cycle;Signal;HPM_P1;HPM_P2
2022/12/01 00:02:15;;;;;;;23.73;11.75;;;5.40;29.50;;;;;;5033512;28;20056;-77
2022/12/01 00:04:41;;;;;;;23.83;12.32;;;5.40;25.30;;;;;;5033453;28;20029;-78
2022/12/01 00:07:07;;;;;;;22.13;13.15;;;5.40;26.80;;;;;;5034262;28;20033;-77
2022/12/01 00:12:19;;;;;;;22.38;11.50;;;5.30;29.30;;;;;;5041916;28;20034;-79
2022/12/01 00:14:53;;;;;;;28.17;13.98;;;5.30;27.10;;;;;;5025333;28;20037;-78
2022/12/01 00:17:20;;;;;;;24.15;12.50;;;5.30;29.90;;;;;;5033512;28;20037;-78
2022/12/01 00:19:46;;;;;;;24.85;12.02;;;5.30;33.90;;;;;;5034101;28;20025;-78
2022/12/01 00:22:12;;;;;;;22.77;13.10;;;5.30;34.20;;;;;;5033475;28;20241;-78
2022/12/01 00:24:39;;;;;;;27.95;13.82;;;5.30;30.80;;;;;;5032688;28;20040;-77
2022/12/01 00:27:05;;;;;;;31.02;13.57;;;5.30;26.70;;;;;;5033692;28;20044;-79
2022/12/01 00:29:32;;;;;;;28.90;13.02;;;5.30;27.40;;;;;;5014745;28;20394;-77
2022/12/01 00:31:58;;;;;;;27.13;12.68;;;5.20;28.50;;;;;;5015172;28;20052;-77
2022/12/01 00:34:25;;;;;;;28.50;12.73;;;5.30;28.40;;;;;;5032802;28;20048;-76
2022/12/01 00:36:51;;;;;;;24.17;13.00;;;5.30;30.00;;;;;;5033056;28;20064;-76
2022/12/01 00:39:17;;;;;;;25.85;12.88;;;5.20;32.60;;;;;;5033076;28;20029;-77
2022/12/01 00:41:43;;;;;;;25.38;13.80;;;5.20;30.40;;;;;;5032888;28;20038;-77
2022/12/01 00:44:10;;;;;;;24.90;11.95;;;5.20;29.80;;;;;;5033354;28;20040;-77
2022/12/01 00:46:36;;;;;;;23.80;12.48;;;5.30;32.80;;;;;;5032249;28;20033;-77
2022/12/01 00:49:02;;;;;;;25.42;13.73;;;5.30;34.70;;;;;;5033242;28;20386;-77
2022/12/01 00:51:29;;;;;;;28.58;13.55;;;5.20;36.00;;;;;;5033187;28;20033;-77
2022/12/01 00:53:55;;;;;;;28.40;13.48;;;5.30;29.30;;;;;;5044977;28;20040;-77
2022/12/01 00:56:21;;;;;;;25.05;14.52;;;5.30;31.00;;;;;;5033087;28;20038;-78
2022/12/01 00:58:47;;;;;;;26.33;13.07;;;5.30;34.10;;;;;;5034030;28;20029;-77
2022/12/01 01:01:13;;;;;;;25.83;12.57;;;5.30;32.60;;;;;;5032897;28;20049;-77
2022/12/01 01:03:39;;;;;;;27.70;14.15;;;5.30;35.00;;;;;;5013943;28;20052;-78
2022/12/01 01:06:11;;;;;;;27.20;12.50;;;5.30;36.80;;;;;;5032698;28;20033;-78
2022/12/01 01:08:37;;;;;;;27.75;15.18;;;5.30;43.10;;;;;;5013142;28;20442;-78
2022/12/01 01:11:05;;;;;;;26.98;14.43;;;5.30;50.40;;;;;;5032784;28;20363;-79
2022/12/01 01:13:31;;;;;;;23.98;13.95;;;5.40;56.30;;;;;;5031760;28;20030;-79
2022/12/01 01:16:04;;;;;;;25.60;13.57;;;5.40;59.70;;;;;;5032594;28;20036;-76
2022/12/01 01:18:31;;;;;;;25.10;13.25;;;5.40;61.60;;;;;;5031663;28;20068;-77
2022/12/01 01:21:00;;;;;;;25.63;13.63;;;5.40;65.30;;;;;;5032154;28;20033;-76
2022/12/01 01:23:26;;;;;;;25.05;13.68;;;5.40;67.00;;;;;;5031697;28;20037;-77
2022/12/01 01:25:52;;;;;;;27.27;13.13;;;5.40;68.00;;;;;;5032320;28;20035;-77
2022/12/01 01:28:19;;;;;;;25.45;12.25;;;5.40;72.40;;;;;;5014982;28;20049;-77
2022/12/01 01:30:45;;;;;;;24.15;13.25;;;5.40;73.60;;;;;;5032970;28;20033;-78
2022/12/01 01:33:11;;;;;;;22.55;10.88;;;5.30;74.70;;;;;;5052058;28;20033;-78
2022/12/01 01:35:37;;;;;;;27.42;12.90;;;5.30;77.70;;;;;;5017482;28;20041;-77
2022/12/01 01:38:03;;;;;;;23.98;12.13;;;5.20;83.30;;;;;;5051853;28;20037;-77
2022/12/01 01:40:30;;;;;;;22.65;12.98;;;5.20;86.20;;;;;;5033394;28;20045;-77
2022/12/01 01:42:56;;;;;;;27.60;13.45;;;5.20;89.90;;;;;;5051815;28;20039;-77
2022/12/01 01:45:24;;;;;;;27.58;13.40;;;5.20;90.30;;;;;;5033327;28;20037;-78
2022/12/01 01:47:52;;;;;;;23.67;12.82;;;5.20;90.20;;;;;;5051911;28;20052;-77
2022/12/01 01:50:22;;;;;;;25.48;12.95;;;5.10;90.30;;;;;;5034101;28;20033;-77
2022/12/01 01:53:03;;;;;;;;;;;5.10;91.00;;;;;;5036825;28;20041;-77
2022/12/01 01:55:32;;;;;;;;;;;5.10;90.00;;;;;;5051438;28;19913;-77
2022/12/01 01:57:59;;;;;;;27.88;10.45;;;5.10;86.10;;;;;;5051530;28;19935;-77
2022/12/01 02:00:25;;;;;;;26.35;13.05;;;5.20;85.10;;;;;;5050954;28;20029;-78
2022/12/01 02:02:52;;;;;;;28.67;12.00;;;5.20;83.80;;;;;;5052213;28;20393;-77
2022/12/01 02:05:25;;;;;;;22.48;12.68;;;5.20;83.00;;;;;;5052110;28;20119;-77
2022/12/01 02:07:55;;;;;;;26.88;12.68;;;5.20;82.20;;;;;;5051960;28;20040;-77
2022/12/01 02:10:28;;;;;;;22.23;12.10;;;5.10;83.10;;;;;;5051742;28;20029;-77
2022/12/01 02:13:14;;;;;;;29.00;13.50;;;5.20;81.20;;;;;;5051672;28;20052;-77
2022/12/01 02:16:14;;;;;;;27.45;13.38;;;5.10;82.10;;;;;;5050861;28;20037;-77
2022/12/01 02:19:13;;;;;;;25.95;12.73;;;5.10;81.00;;;;;;5022073;28;20489;-77
2022/12/01 02:21:45;;;;;;;25.70;11.93;;;5.20;74.00;;;;;;5029705;28;20500;-77
2022/12/01 02:24:27;;;;;;;20.73;11.70;;;5.10;73.90;;;;;;5051215;28;20033;-77
2022/12/01 02:27:20;;;;;;;23.88;12.05;;;5.10;72.00;;;;;;5051756;28;20107;-77
2022/12/01 02:29:49;;;;;;;25.15;12.35;;;5.10;71.30;;;;;;5031968;28;20037;-77
2022/12/01 02:32:29;;;;;;;25.38;12.63;;;5.10;66.50;;;;;;5033080;28;20064;-77
2022/12/01 02:35:03;;;;;;;26.13;11.93;;;5.10;65.70;;;;;;5051708;28;20037;-77
2022/12/01 02:37:48;;;;;;;24.52;12.55;;;5.10;67.00;;;;;;5032382;28;20053;-77
2022/12/01 02:40:32;;;;;;;23.38;11.30;;;5.10;65.00;;;;;;5033045;28;20063;-77
2022/12/01 02:43:28;;;;;;;24.15;12.48;;;5.10;68.20;;;;;;5033305;28;20470;-77
2022/12/01 02:46:07;;;;;;;27.08;11.85;;;5.10;72.50;;;;;;5051402;28;20029;-76
2022/12/01 02:48:36;;;;;;;25.17;12.05;;;5.00;76.50;;;;;;5050356;28;20033;-76
2022/12/01 02:51:09;;;;;;;24.75;11.50;;;5.00;78.50;;;;;;5051316;28;20069;-76
2022/12/01 02:53:35;;;;;;;25.83;12.23;;;5.00;76.40;;;;;;5051769;28;20036;-77
2022/12/01 02:56:06;;;;;;;26.13;11.73;;;5.00;63.00;;;;;;5051396;28;20029;-76
2022/12/01 02:58:32;;;;;;;22.27;11.63;;;5.00;52.40;;;;;;5031761;28;20053;-77
2022/12/01 03:01:17;;;;;;;19.35;11.45;;;5.00;52.70;;;;;;5050795;28;20462;-76
2022/12/01 03:04:08;;;;;;;20.35;11.32;;;5.00;45.80;;;;;;5032567;28;20040;-77
2022/12/01 03:07:09;;;;;;;22.27;11.10;;;5.00;34.80;;;;;;5050527;28;20138;-77
2022/12/01 03:09:53;;;;;;;17.90;10.73;;;5.00;20.20;;;;;;5050168;28;20036;-76
2022/12/01 03:12:45;;;;;;;20.70;11.80;;;5.00;15.20;;;;;;5050883;28;20037;-76
2022/12/01 03:15:21;;;;;;;20.27;11.23;;;5.00;11.20;;;;;;5042720;28;20064;-76
2022/12/01 03:18:00;;;;;;;26.48;12.25;;;5.00;3.00;;;;;;5050264;28;20045;-78
2022/12/01 03:21:01;;;;;;;21.20;11.63;;;5.00;1.00;;;;;;5032987;28;20056;-77
2022/12/01 03:23:30;;;;;;;16.48;9.73;;;5.00;1.00;;;;;;4998822;28;20481;-78
2022/12/01 03:26:00;;;;;;;18.40;10.20;;;5.00;1.00;;;;;;5033365;28;20029;-77
2022/12/01 03:28:34;;;;;;;16.98;11.07;;;5.00;1.00;;;;;;5050620;28;20037;-77
2022/12/01 03:31:06;;;;;;;19.15;9.95;;;5.00;1.00;;;;;;5050811;28;20025;-77
2022/12/01 03:33:33;;;;;;;;;;;5.00;1.00;;;;;;5053941;28;20029;-77
2022/12/01 03:36:05;;;;;;;17.05;10.02;;;5.00;1.00;;;;;;5036215;28;19927;-77
2022/12/01 03:38:35;;;;;;;17.85;10.32;;;5.00;1.00;;;;;;5053364;28;20398;-77
2022/12/01 03:41:15;;;;;;;18.92;10.35;;;5.00;1.00;;;;;;5035994;28;20048;-77
2022/12/01 03:43:47;;;;;;;17.45;10.32;;;5.00;1.00;;;;;;5053639;28;20366;-77
2022/12/01 03:46:24;;;;;;;21.67;12.20;;;5.00;1.00;;;;;;5054213;28;20488;-77
2022/12/01 03:48:53;;;;;;;19.70;11.20;;;5.00;1.00;;;;;;5053219;28;20040;-77
2022/12/01 03:51:44;;;;;;;21.48;11.43;;;5.00;1.00;;;;;;5036626;28;20043;-77
2022/12/01 03:54:18;;;;;;;18.13;9.95;;;5.00;1.00;;;;;;5054000;28;20040;-77
2022/12/01 03:56:52;;;;;;;20.63;11.75;;;5.00;1.00;;;;;;5053501;28;20458;-77
2022/12/01 03:59:21;;;;;;;18.60;11.20;;;4.90;1.00;;;;;;5054297;28;20029;-78
2022/12/01 04:01:48;;;;;;;19.70;10.80;;;5.00;1.00;;;;;;5034359;28;20044;-77
2022/12/01 04:04:14;;;;;;;18.80;10.30;;;4.90;1.00;;;;;;5059299;28;20040;-78
2022/12/01 04:06:46;;;;;;;20.42;10.77;;;4.90;1.00;;;;;;5055251;28;20063;-78
2022/12/01 04:09:12;;;;;;;17.17;10.20;;;4.90;1.00;;;;;;5054092;28;20055;-77
2022/12/01 04:14:23;;;;;;;17.80;9.73;;;4.90;1.00;;;;;;5057972;28;20389;-83
2022/12/01 04:16:49;;;;;;;20.10;10.05;;;4.80;1.00;;;;;;5053625;28;20040;-78
2022/12/01 04:19:15;;;;;;;17.63;9.85;;;4.80;1.00;;;;;;5064685;28;20013;-77
2022/12/01 04:21:42;;;;;;;19.50;10.75;;;4.80;1.00;;;;;;5063560;28;20073;-78
2022/12/01 04:24:08;;;;;;;19.65;11.65;;;4.70;1.00;;;;;;5055340;28;20032;-77
2022/12/01 04:26:36;;;;;;;17.10;9.88;;;4.70;1.00;;;;;;5052380;28;20036;-79
2022/12/01 04:29:05;;;;;;;18.75;11.15;;;4.70;1.00;;;;;;5053573;28;20044;-77
2022/12/01 04:31:31;;;;;;;21.50;10.65;;;4.70;1.00;;;;;;5051992;28;20037;-78
2022/12/01 04:33:58;;;;;;;22.58;12.45;;;4.70;1.00;;;;;;5035334;28;20029;-77
2022/12/01 04:36:26;;;;;;;18.58;10.43;;;4.70;1.00;;;;;;5053071;28;20041;-77
2022/12/01 04:38:52;;;;;;;18.85;10.38;;;4.60;1.00;;;;;;5034058;28;20041;-78
2022/12/01 04:41:18;;;;;;;19.73;11.07;;;4.60;1.00;;;;;;5051132;28;20025;-77
2022/12/01 04:43:45;;;;;;;19.20;11.40;;;4.60;1.00;;;;;;5040687;28;20040;-78
2022/12/01 04:46:11;;;;;;;16.80;9.20;;;4.60;1.00;;;;;;5033262;28;20033;-78
2022/12/01 04:48:38;;;;;;;17.13;9.98;;;4.60;1.00;;;;;;5032080;28;20041;-77
2022/12/01 04:51:06;;;;;;;17.20;9.63;;;4.60;1.00;;;;;;5032786;28;20033;-78
2022/12/01 04:53:33;;;;;;;20.67;10.70;;;4.60;1.00;;;;;;5033430;28;20037;-78
2022/12/01 04:56:00;;;;;;;19.55;10.32;;;4.50;1.00;;;;;;5033000;28;20025;-77
2022/12/01 04:58:30;;;;;;;20.17;11.20;;;4.50;1.00;;;;;;5032852;28;20041;-77
2022/12/01 05:01:01;;;;;;;16.75;9.57;;;4.50;1.00;;;;;;5031525;28;20060;-77
2022/12/01 05:03:28;;;;;;;19.70;10.88;;;4.50;1.00;;;;;;5042813;28;20029;-78
2022/12/01 05:06:02;;;;;;;18.13;9.45;;;4.50;1.00;;;;;;5051714;28;20602;-78
2022/12/01 05:08:28;;;;;;;19.52;9.90;;;4.50;1.00;;;;;;5052783;28;20394;-81
2022/12/01 05:10:55;;;;;;;19.33;10.70;;;4.50;1.00;;;;;;5051949;28;20155;-78
2022/12/01 05:13:21;;;;;;;18.40;9.52;;;4.40;1.00;;;;;;5052149;28;20029;-78
2022/12/01 05:15:48;;;;;;;21.73;9.70;;;4.40;1.00;;;;;;5051685;28;20033;-78
2022/12/01 05:18:14;;;;;;;19.80;11.30;;;4.40;1.00;;;;;;5052348;28;20045;-77
2022/12/01 05:20:58;;;;;;;18.17;9.93;;;4.40;1.00;;;;;;5051518;28;20040;-78
2022/12/01 05:23:29;;;;;;;21.83;12.07;;;4.40;1.00;;;;;;5052595;28;20473;-77
2022/12/01 05:25:55;;;;;;;20.83;14.00;;;4.40;1.00;;;;;;5051759;28;20029;-77
2022/12/01 05:28:23;;;;;;;19.98;11.52;;;4.30;1.00;;;;;;5052452;28;20044;-79
2022/12/01 05:30:50;;;;;;;19.17;11.27;;;4.40;1.00;;;;;;5050443;28;20040;-78
2022/12/01 05:33:16;;;;;;;22.27;12.55;;;4.40;1.00;;;;;;5051017;28;20029;-77
2022/12/01 05:35:43;;;;;;;25.83;14.80;;;4.30;1.00;;;;;;5050982;28;20048;-78
2022/12/01 05:38:09;;;;;;;18.58;10.88;;;4.30;1.00;;;;;;5052729;28;20485;-77
2022/12/01 05:40:36;;;;;;;21.38;11.80;;;4.30;1.00;;;;;;5051777;28;20029;-82
2022/12/01 05:43:02;;;;;;;20.35;10.30;;;4.30;1.00;;;;;;5052111;28;20036;-77
2022/12/01 05:45:29;;;;;;;15.40;10.23;;;4.30;1.00;;;;;;5052095;28;20033;-79
2022/12/01 05:47:56;;;;;;;18.70;11.02;;;4.30;1.00;;;;;;5049469;28;20049;-78
2022/12/01 05:50:23;;;;;;;20.75;10.85;;;4.30;1.00;;;;;;5050903;28;20044;-77
2022/12/01 05:52:50;;;;;;;20.70;10.88;;;4.30;1.00;;;;;;5050912;28;20037;-77
2022/12/01 05:55:16;;;;;;;18.38;10.77;;;4.30;1.00;;;;;;5050992;28;20033;-77
2022/12/01 05:57:42;;;;;;;21.02;10.30;;;4.20;1.00;;;;;;5051552;28;20484;-78
2022/12/01 06:00:09;;;;;;;18.98;10.40;;;4.30;1.00;;;;;;5050698;28;20385;-79
2022/12/01 06:02:40;;;;;;;20.60;12.57;;;4.20;1.00;;;;;;5051188;28;20060;-82
2022/12/01 06:05:07;;;;;;;22.40;11.45;;;4.20;1.00;;;;;;5049983;28;20033;-78
2022/12/01 06:07:34;;;;;;;20.80;11.65;;;4.20;1.00;;;;;;5051757;28;20480;-77
2022/12/01 06:10:01;;;;;;;22.35;11.27;;;4.20;1.00;;;;;;5051066;28;20033;-77
2022/12/01 06:12:28;;;;;;;20.60;11.07;;;4.10;1.00;;;;;;5051735;28;20457;-78
2022/12/01 06:14:54;;;;;;;23.88;10.90;;;4.20;1.00;;;;;;5050681;28;20033;-76
2022/12/01 06:17:20;;;;;;;20.20;11.40;;;4.10;1.00;;;;;;5051376;28;20031;-78
2022/12/01 06:19:46;;;;;;;20.48;11.68;;;4.20;1.00;;;;;;5052707;28;20033;-79
2022/12/01 06:22:13;;;;;;;18.73;10.68;;;4.10;1.00;;;;;;5051538;28;20036;-78
2022/12/01 06:24:39;;;;;;;21.92;10.65;;;4.10;1.00;;;;;;5051076;28;20025;-80
2022/12/01 06:27:05;;;;;;;21.25;11.63;;;4.10;1.00;;;;;;5051130;28;20036;-78
2022/12/01 06:29:31;;;;;;;20.55;12.35;;;4.10;1.00;;;;;;5050356;28;20037;-79
2022/12/01 06:31:57;;;;;;;22.70;11.13;;;4.10;1.00;;;;;;5049152;28;20041;-77
2022/12/01 06:34:23;;;;;;;18.45;10.82;;;4.10;1.00;;;;;;5050148;28;20021;-77
2022/12/01 06:36:49;;;;;;;22.77;12.52;;;4.10;1.00;;;;;;5053467;28;20029;-77
2022/12/01 06:39:16;;;;;;;20.15;10.95;;;4.10;1.00;;;;;;5051616;28;20108;-77
2022/12/01 06:41:42;;;;;;;18.45;11.00;;;4.10;1.00;;;;;;5050751;28;20060;-80
2022/12/01 06:44:09;;;;;;;21.10;12.48;;;4.00;1.00;;;;;;5050123;28;20022;-76
2022/12/01 06:46:36;;;;;;;36.15;23.05;;;4.00;1.00;;;;;;5049949;28;20493;-78
2022/12/01 06:49:03;;;;;;;26.48;15.32;;;4.00;1.00;;;;;;5050527;28;20035;-76
2022/12/01 06:51:32;;;;;;;23.42;11.93;;;4.00;1.00;;;;;;5051212;28;20056;-76
2022/12/01 06:53:58;;;;;;;19.52;10.80;;;4.00;1.00;;;;;;5049865;28;20048;-77
2022/12/01 06:56:24;;;;;;;19.38;11.63;;;4.00;1.00;;;;;;5052660;28;20029;-78
2022/12/01 06:58:52;;;;;;;19.00;10.63;;;4.00;1.00;;;;;;5050186;28;20048;-77
2022/12/01 07:01:18;;;;;;;20.88;11.90;;;4.00;1.00;;;;;;5051158;28;20381;-78
2022/12/01 07:03:48;;;;;;;16.88;9.98;;;3.90;1.00;;;;;;5050211;28;20120;-79
2022/12/01 07:06:15;;;;;;;13.32;7.68;;;3.90;1.00;;;;;;5052857;28;20040;-76
2022/12/01 07:08:42;;;;;;;19.58;12.57;;;4.00;1.00;;;;;;5055011;28;20033;-80
2022/12/01 07:11:13;;;;;;;19.50;10.45;;;4.00;1.00;;;;;;5054467;28;20037;-77
2022/12/01 07:13:43;;;;;;;20.10;11.80;;;3.90;1.00;;;;;;5056993;28;20033;-77
2022/12/01 07:16:10;;;;;;;22.10;10.70;;;3.90;1.00;;;;;;5055833;28;20036;-76
2022/12/01 07:18:37;;;;;;;22.25;11.98;;;3.90;1.00;;;;;;5054449;28;20052;-76
2022/12/01 07:21:09;;;;;;;19.83;11.50;;;4.00;1.00;;;;;;5054105;28;20575;-76
2022/12/01 07:23:35;;;;;;;19.40;9.70;;;3.90;1.00;;;;;;5054508;28;20385;-76
2022/12/01 07:26:13;;;;;;;21.60;11.77;;;4.00;1.00;;;;;;5053940;28;20029;-76
2022/12/01 07:28:40;;;;;;;19.30;10.50;;;3.90;1.00;;;;;;5053360;28;20036;-77
2022/12/01 07:31:17;;;;;;;19.15;10.52;;;4.00;1.00;;;;;;5053987;28;20032;-76
2022/12/01 07:33:43;;;;;;;19.25;10.82;;;4.00;1.00;;;;;;5052352;28;20052;-81
2022/12/01 07:36:10;;;;;;;21.65;13.00;;;3.90;1.00;;;;;;5054041;28;20040;-79
2022/12/01 07:38:38;;;;;;;20.30;10.38;;;3.90;1.00;;;;;;5054142;28;20037;-76
2022/12/01 07:41:05;;;;;;;20.67;12.25;;;3.90;1.00;;;;;;5053645;28;20460;-76
2022/12/01 07:43:33;;;;;;;18.85;11.65;;;4.00;1.00;;;;;;5054258;28;20140;-76
2022/12/01 07:46:07;;;;;;;17.25;10.27;;;4.00;1.00;;;;;;5053534;28;20033;-76
2022/12/01 07:48:36;;;;;;;16.83;9.45;;;4.00;1.00;;;;;;5054162;28;20048;-77
2022/12/01 07:51:03;;;;;;;13.10;9.45;;;4.00;1.00;;;;;;5053933;28;20036;-75
2022/12/01 07:53:30;;;;;;;19.33;9.25;;;3.90;1.00;;;;;;5053038;28;20462;-76
2022/12/01 07:55:56;;;;;;;17.48;9.55;;;3.90;1.00;;;;;;5054295;28;20484;-76
2022/12/01 07:58:22;;;;;;;20.23;9.82;;;3.90;1.00;;;;;;5054262;28;20465;-77
2022/12/01 08:00:48;;;;;;;15.43;9.50;;;4.00;1.00;;;;;;5045887;28;20037;-77
2022/12/01 08:03:15;;;;;;;19.40;10.55;;;4.00;1.00;;;;;;5054436;28;20048;-77
2022/12/01 08:05:41;;;;;;;15.30;9.65;;;4.00;1.00;;;;;;5054534;28;20044;-78
2022/12/01 08:08:07;;;;;;;17.25;10.57;;;4.00;1.00;;;;;;5053770;28;20040;-76
2022/12/01 08:10:34;;;;;;;15.23;9.60;;;4.00;1.00;;;;;;5053735;28;20040;-76
2022/12/01 08:13:00;;;;;;;18.63;10.38;;;4.00;1.00;;;;;;5051905;28;20048;-77
2022/12/01 08:15:26;;;;;;;14.85;9.00;;;4.10;1.00;;;;;;5053658;28;20453;-76
2022/12/01 08:17:52;;;;;;;26.50;15.57;;;4.00;1.00;;;;;;5050922;28;20045;-77
2022/12/01 08:20:20;;;;;;;22.27;12.93;;;4.10;1.00;;;;;;5053783;28;20033;-78
2022/12/01 08:22:46;;;;;;;17.63;9.88;;;4.10;1.00;;;;;;5053809;28;20033;-79
2022/12/01 08:25:12;;;;;;;19.55;8.88;;;4.10;1.00;;;;;;5054068;28;20151;-76
2022/12/01 08:27:38;;;;;;;15.55;8.80;;;4.20;1.00;;;;;;5058094;28;20148;-78
2022/12/01 08:30:05;;;;;;;14.57;9.13;;;4.20;1.00;;;;;;5069626;28;20847;-77
2022/12/01 08:32:32;;;;;;;15.48;8.45;;;4.20;1.00;;;;;;5065560;28;20454;-76
2022/12/01 08:34:58;;;;;;;16.10;8.85;;;4.20;1.00;;;;;;5052568;28;20029;-78
2022/12/01 08:37:24;;;;;;;15.27;8.95;;;4.30;1.00;;;;;;5053152;28;20032;-76
2022/12/01 08:39:50;;;;;;;15.23;9.18;;;4.30;1.00;;;;;;5052875;28;20041;-78
2022/12/01 08:42:16;;;;;;;16.90;10.13;;;4.30;1.00;;;;;;5053209;28;20029;-74
2022/12/01 08:44:42;;;;;;;16.23;8.65;;;4.40;1.00;;;;;;5051813;28;20458;-75
2022/12/01 08:47:08;;;;;;;16.77;8.48;;;4.40;1.00;;;;;;5052528;28;20040;-75
2022/12/01 08:49:34;;;;;;;14.60;8.52;;;4.40;1.00;;;;;;5053252;28;20036;-76
2022/12/01 08:52:01;;;;;;;13.45;8.15;;;4.40;1.00;;;;;;5052017;28;20032;-75
2022/12/01 08:54:27;;;;;;;13.95;8.45;;;4.40;1.00;;;;;;5052880;28;20029;-76
2022/12/01 08:56:53;;;;;;;14.40;8.65;;;4.40;1.00;;;;;;5053436;28;20033;-76
2022/12/01 08:59:19;;;;;;;12.48;7.07;;;4.40;1.00;;;;;;5057289;28;20044;-77
2022/12/01 09:01:51;;;;;;;12.93;8.02;;;4.40;1.00;;;;;;5051763;28;20045;-75
2022/12/01 09:04:20;;;;;;;13.75;7.70;;;4.40;1.00;;;;;;5053012;28;20029;-77
2022/12/01 09:06:47;;;;;;;13.80;7.55;;;4.40;1.00;;;;;;5051719;28;20025;-75
2022/12/01 09:09:27;;;;;;;14.32;8.32;;;4.30;1.00;;;;;;5052130;28;20040;-76
2022/12/01 09:11:54;;;;;;;15.90;8.07;;;4.30;1.00;;;;;;5051909;28;20033;-78
2022/12/01 09:14:22;;;;;;;17.45;9.02;;;4.30;1.00;;;;;;5052875;28;20381;-77
2022/12/01 09:16:49;;;;;;;14.60;8.75;;;4.40;1.00;;;;;;5052678;28;20040;-79
2022/12/01 09:19:17;;;;;;;15.23;8.68;;;4.40;1.00;;;;;;5052040;28;20108;-77
2022/12/01 09:21:44;;;;;;;15.70;9.40;;;4.40;1.00;;;;;;5051109;28;20052;-76
2022/12/01 09:24:12;;;;;;;12.98;7.57;;;4.40;1.00;;;;;;5050349;28;20048;-76
2022/12/01 09:26:39;;;;;;;12.88;7.65;;;4.40;1.00;;;;;;5051915;28;20045;-75
2022/12/01 09:29:08;;;;;;;18.58;8.77;;;4.50;1.00;;;;;;5051648;28;20033;-79
2022/12/01 09:31:35;;;;;;;16.38;8.88;;;4.60;1.00;;;;;;5050421;28;20041;-77
2022/12/01 09:34:06;;;;;;;16.35;8.27;;;4.60;1.00;;;;;;5051633;28;20103;-79
2022/12/01 09:36:36;;;;;;;13.32;8.20;;;4.60;1.00;;;;;;5050883;28;20394;-78
2022/12/01 09:39:04;;;;;;;13.00;7.18;;;4.60;1.00;;;;;;5051452;28;20041;-78
2022/12/01 09:41:41;;;;;;;14.50;7.90;;;4.60;1.00;;;;;;5052144;28;20032;-77
2022/12/01 09:44:29;;;;;;;11.60;7.25;;;4.60;1.00;;;;;;5050390;28;20036;-78
2022/12/01 09:47:03;;;;;;;12.20;7.07;;;4.70;1.00;;;;;;5050448;28;20041;-77
2022/12/01 09:49:32;;;;;;;11.85;6.97;;;4.70;1.00;;;;;;5052214;28;20047;-78
2022/12/01 09:51:58;;;;;;;15.13;8.50;;;4.80;1.00;;;;;;5051044;28;20025;-77
2022/12/01 09:54:25;;;;;;;14.15;7.63;;;4.80;1.00;;;;;;5051072;28;20043;-77
2022/12/01 09:56:54;;;;;;;13.73;7.53;;;4.80;1.00;;;;;;5051794;28;20032;-82
2022/12/01 09:59:26;;;;;;;12.70;7.85;;;4.80;1.00;;;;;;5051930;28;20041;-78
2022/12/01 10:02:00;;;;;;;14.90;7.55;;;4.70;1.00;;;;;;5051587;28;20402;-80
2022/12/01 10:04:32;;;;;;;11.95;7.43;;;4.80;1.00;;;;;;5051949;28;20382;-78
2022/12/01 10:07:05;;;;;;;11.52;7.22;;;4.80;1.00;;;;;;5050004;28;20037;-78
2022/12/01 10:10:05;;;;;;;13.32;8.18;;;4.80;1.00;;;;;;5049951;28;20056;-78
2022/12/01 10:12:34;;;;;;;12.27;6.97;;;4.90;1.00;;;;;;5051917;28;20033;-78
2022/12/01 10:15:29;;;;;;;12.60;7.13;;;4.90;1.00;;;;;;5051036;28;20039;-77
2022/12/01 10:18:07;;;;;;;12.38;7.43;;;5.00;1.00;;;;;;5050090;28;20041;-84
2022/12/01 10:20:56;;;;;;;13.18;6.95;;;4.90;1.00;;;;;;5052134;28;20045;-80
2022/12/01 10:23:53;;;;;;;13.57;7.70;;;4.90;1.00;;;;;;5052865;28;20025;-83
2022/12/01 10:26:27;;;;;;;13.73;6.95;;;5.00;1.00;;;;;;5052568;28;20029;-78
2022/12/01 10:29:38;;;;;;;15.00;7.78;;;4.90;1.00;;;;;;5067240;28;20466;-79
2022/12/01 10:32:16;;;;;;;14.63;8.18;;;4.90;1.00;;;;;;5050450;28;20048;-83
2022/12/01 10:34:45;;;;;;;11.40;7.43;;;5.00;1.00;;;;;;5049406;28;20029;-81
2022/12/01 10:37:21;;;;;;;12.77;6.60;;;5.00;1.00;;;;;;5051259;28;20029;-78
2022/12/01 10:39:50;;;;;;;13.77;8.52;;;5.00;1.00;;;;;;5043148;28;20084;-81
2022/12/01 10:42:41;;;;;;;9.93;6.70;;;5.00;1.00;;;;;;5050146;28;20052;-79
2022/12/01 10:45:28;;;;;;;12.63;7.13;;;5.00;1.00;;;;;;5036692;28;20067;-77
2022/12/01 10:48:14;;;;;;;12.93;7.47;;;5.00;1.00;;;;;;5055372;28;20025;-82
2022/12/01 10:50:43;;;;;;;12.23;8.20;;;5.00;1.00;;;;;;5060084;28;20021;-80
2022/12/01 10:53:38;;;;;;;14.00;8.00;;;5.00;1.00;;;;;;5056166;28;20033;-83
2022/12/01 10:56:18;;;;;;;12.18;7.28;;;5.00;1.00;;;;;;5041740;28;20045;-79
2022/12/01 10:58:54;;;;;;;15.45;7.53;;;5.00;1.00;;;;;;5054810;28;20456;-76
2022/12/01 11:01:30;;;;;;;14.65;8.35;;;5.10;1.00;;;;;;5055301;28;20045;-76
2022/12/01 11:04:02;;;;;;;11.35;7.47;;;5.20;1.00;;;;;;5055105;28;20037;-82
2022/12/01 11:06:29;;;;;;;14.38;7.82;;;5.10;1.00;;;;;;5054986;28;20025;-77
2022/12/01 11:08:59;;;;;;;14.90;7.90;;;5.20;1.00;;;;;;5045096;28;20037;-81
2022/12/01 11:11:32;;;;;;;13.80;7.72;;;5.20;1.00;;;;;;5051843;28;20036;-76
2022/12/01 11:14:03;;;;;;;11.73;8.15;;;5.20;1.00;;;;;;5053995;28;20481;-77
2022/12/01 11:16:37;;;;;;;14.07;7.95;;;5.30;1.00;;;;;;5054692;28;20493;-76
2022/12/01 11:19:29;;;;;;;13.20;7.45;;;5.40;1.00;;;;;;5054559;28;20481;-78
2022/12/01 11:22:17;;;;;;;11.63;6.95;;;5.30;1.00;;;;;;5055198;28;20033;-80
2022/12/01 11:24:52;;;;;;;13.20;8.77;;;5.30;1.00;;;;;;5039497;28;20048;-75
2022/12/01 11:27:24;;;;;;;14.45;7.65;;;5.30;1.00;;;;;;5048790;28;20017;-75
2022/12/01 11:29:56;;;;;;;12.07;7.30;;;5.30;1.00;;;;;;5045152;28;20041;-76
2022/12/01 11:32:35;;;;;;;13.77;7.88;;;5.40;1.00;;;;;;5068641;28;20477;-75
2022/12/01 11:35:18;;;;;;;13.38;7.50;;;5.40;1.00;;;;;;5051722;28;20037;-76
2022/12/01 11:37:54;;;;;;;11.70;7.03;;;5.40;1.00;;;;;;5055145;28;20052;-76
2022/12/01 11:40:27;;;;;;;11.88;7.40;;;5.40;1.00;;;;;;5052934;28;20047;-77
2022/12/01 11:43:00;;;;;;;15.50;8.73;;;5.50;1.00;;;;;;5054625;28;20041;-77
2022/12/01 11:45:33;;;;;;;15.93;8.05;;;5.60;1.00;;;;;;5054695;28;20484;-77
2022/12/01 11:48:08;;;;;;;15.90;8.73;;;5.50;1.00;;;;;;5054400;28;20051;-80
2022/12/01 11:50:37;;;;;;;15.63;10.15;;;5.40;1.00;;;;;;5053269;28;20066;-77
2022/12/01 11:53:28;;;;;;;15.43;9.25;;;5.30;1.00;;;;;;5052943;28;20056;-77
2022/12/01 11:56:13;;;;;;;14.18;8.32;;;5.30;1.00;;;;;;5055997;28;20429;-77
2022/12/01 11:58:40;;;;;;;17.38;8.73;;;5.30;1.00;;;;;;5062794;28;20041;-78
2022/12/01 12:01:26;;;;;;;17.98;9.18;;;5.30;1.00;;;;;;5063584;28;20041;-78
2022/12/01 12:04:02;;;;;;;13.57;8.00;;;5.30;1.00;;;;;;5075137;28;20043;-79
2022/12/01 12:06:43;;;;;;;15.32;7.95;;;5.30;1.00;;;;;;5064990;28;20029;-78
2022/12/01 12:09:28;;;;;;;;;;;5.30;1.00;;;;;;5054808;28;20029;-79
2022/12/01 12:12:12;;;;;;;12.65;7.22;;;5.40;1.00;;;;;;5055609;28;19976;-79
2022/12/01 12:15:13;;;;;;;13.95;7.70;;;5.30;1.00;;;;;;5054490;28;20033;-81
2022/12/01 12:17:46;;;;;;;;;;;5.30;1.00;;;;;;5054865;28;20036;-78
2022/12/01 12:20:40;;;;;;;13.70;7.53;;;5.40;1.00;;;;;;5052453;28;20369;-78
2022/12/01 12:23:12;;;;;;;12.95;7.43;;;5.40;1.00;;;;;;5049598;28;20469;-81
2022/12/01 12:26:15;;;;;;;14.02;8.43;;;5.30;1.00;;;;;;5053227;28;20033;-76
2022/12/01 12:28:58;;;;;;;13.35;7.70;;;5.30;1.00;;;;;;5039996;28;20052;-79
2022/12/01 12:31:33;;;;;;;14.32;7.63;;;5.20;1.00;;;;;;5053405;28;20029;-84
2022/12/01 12:34:11;;;;;;;14.32;7.95;;;5.20;1.00;;;;;;5053171;28;20486;-82
2022/12/01 12:37:05;;;;;;;18.10;8.93;;;5.30;1.00;;;;;;5063980;28;20040;-79
2022/12/01 12:39:39;;;;;;;15.55;8.55;;;5.30;1.00;;;;;;5061546;28;20033;-79
2022/12/01 12:42:37;;;;;;;15.00;7.82;;;5.30;1.00;;;;;;5053026;28;20029;-80
2022/12/01 12:45:45;;;;;;;14.70;8.25;;;5.30;1.00;;;;;;5051047;28;20025;-82
2022/12/01 12:48:17;;;;;;;14.18;8.75;;;5.30;1.00;;;;;;4945501;28;20055;-79
2022/12/01 12:51:03;;;;;;;14.88;7.80;;;5.20;1.00;;;;;;5033603;28;20049;-79
2022/12/01 12:53:39;;;;;;;14.23;7.07;;;5.20;1.00;;;;;;5015157;28;20037;-78
2022/12/01 12:56:09;;;;;;;15.13;7.68;;;5.20;1.00;;;;;;5032617;28;20455;-75
2022/12/01 12:58:46;;;;;;;14.27;8.13;;;5.20;1.00;;;;;;5015149;28;20041;-77
2022/12/01 13:01:21;;;;;;;13.70;7.85;;;5.20;1.00;;;;;;5032812;28;20038;-77
2022/12/01 13:03:54;;;;;;;14.80;8.02;;;5.20;1.00;;;;;;5042552;28;20025;-80
2022/12/01 13:06:41;;;;;;;13.27;7.32;;;5.20;1.00;;;;;;5051533;28;20041;-79
2022/12/01 13:09:13;;;;;;;12.75;7.30;;;5.20;1.00;;;;;;5049419;28;20060;-83
2022/12/01 13:11:45;;;;;;;16.98;9.30;;;5.20;1.00;;;;;;5052587;28;20128;-80
2022/12/01 13:14:26;;;;;;;12.60;7.68;;;5.20;1.00;;;;;;5051737;28;20024;-78
2022/12/01 13:16:55;;;;;;;;;;;5.20;1.00;;;;;;5052806;28;20036;-77
2022/12/01 13:19:29;;;;;;;13.95;6.45;;;5.30;1.00;;;;;;5050293;28;19917;-78
2022/12/01 13:21:56;;;;;;;13.77;7.43;;;5.20;1.00;;;;;;5052256;28;20485;-77